Πλησιέστερες Αναφορές METAR

 

LGTS - Thessaloniki/Makedonia-Elev 7m
Απόσταση από σταθμό: Ν 13km
Ενημερώθηκε: 21/08/2017 01:20
Διάσπαρτα Νέφη
Διάσπαρτα Νέφη
 Ανεμοι από μεταβλητός
Ανεμος: μεταβλητός 4 km/h
Θερμοκρασία: 23°C
Σημείο Δρόσου: 14°C
Υγρασία: 57%
Βαρόμετρο: 1009 hPa
Νέφωση: Διάσπαρτα Νέφη
Ορατότητα: 10 km
Λεπτομέρειες Νεφών: Διάσπαρτα Νέφη 914 m
2017/08/20 22:20 LGTS 202220Z VRB02KT 9999 FEW030 23/14 Q1009 NOSIG
LGAV - Athens/Elef. Venizelos-Elev 94m
Απόσταση από σταθμό: ΝΝΑ 312km
Ενημερώθηκε: 21/08/2017 01:20
Αίθριος
Αίθριος
 Ανεμοι από Δ
Ανεμος: Δ 7 km/h
Θερμοκρασία: 22°C
Σημείο Δρόσου: 14°C
Υγρασία: 61%
Βαρόμετρο: 1010 hPa
Περίληψη: Αίθριος
Ορατότητα: πάνω από 10 km
2017/08/20 22:20 LGAV 202220Z 28004KT CAVOK 22/14 Q1010 NOSIG
 
LGAL - Alexandroupolis-Elev 3m
Απόσταση από σταθμό: Α 251km
Ενημερώθηκε: 20/08/2017 23:50
ΜΗ Ενημερωμένο METAR!
Διάσπαρτα Νέφη
Διάσπαρτα Νέφη
 Ανεμοι από μεταβλητός
Ανεμος: μεταβλητός 6 km/h
Θερμοκρασία: 22°C
Σημείο Δρόσου: 19°C
Υγρασία: 83%
Βαρόμετρο: 1010 hPa
Νέφωση: Διάσπαρτα Νέφη
Ορατότητα: 10 km
Λεπτομέρειες Νεφών: Διάσπαρτα Νέφη 762 m
2017/08/20 20:50 LGAL 202050Z VRB03KT 9999 FEW025 22/19 Q1010
LGKV - Kavala/Crysoupolis-Elev 5m
Απόσταση από σταθμό: ΑΒΑ 144km
Ενημερώθηκε: 21/08/2017 00:50
Διάσπαρτα Νέφη
Διάσπαρτα Νέφη
 Ανεμοι από ΒΒΑ
Ανεμος: ΒΒΑ 7 km/h
Θερμοκρασία: 23°C
Σημείο Δρόσου: 18°C
Υγρασία: 74%
Βαρόμετρο: 1009 hPa
Νέφωση: Διάσπαρτα Νέφη
Ορατότητα: 10 km
Λεπτομέρειες Νεφών: Διάσπαρτα Νέφη 762 m
2017/08/20 21:50 LGKV 202150Z 03004KT 9999 FEW025 23/18 Q1009
 
LGSK - Skiathos Island-Elev 15m
Απόσταση από σταθμό: ΝΝΑ 168km
Ενημερώθηκε: 20/08/2017 21:50
ΜΗ Ενημερωμένο METAR!
Αίθριος
Αίθριος
 Ανεμοι από άπνοια
Ανεμος: άπνοια
Θερμοκρασία: 25°C
Σημείο Δρόσου: 15°C
Υγρασία: 54%
Βαρόμετρο: 1009 hPa
Περίληψη: Αίθριος
Ορατότητα: πάνω από 10 km
2017/08/20 18:50 LGSK 201850Z 00000KT CAVOK 25/15 Q1009
LGLM - Limnos Island-Elev 5m
Απόσταση από σταθμό: ΑΝΑ 210km
Ενημερώθηκε: 21/08/2017 01:20

 Ανεμοι από μεταβλητός
Ανεμος: μεταβλητός 6 km/h
Θερμοκρασία: 24°C
Σημείο Δρόσου: 21°C
Υγρασία: 83%
Βαρόμετρο: 1009 hPa
2017/08/20 22:20 LGLM 202220Z AUTO VRB03KT //// // ////// 24/21 Q1009 RE//
 
LGMT - Mitilini Island-Elev 17m
Απόσταση από σταθμό: ΑΝΑ 358km
Ενημερώθηκε: 20/08/2017 22:20
ΜΗ Ενημερωμένο METAR!
Αίθριος
Αίθριος
 Ανεμοι από ΔΒΔ
Ανεμος: ΔΒΔ 11 km/h
Θερμοκρασία: 28°C
Δείκτης Δυσφορίας: 29°C
Σημείο Δρόσου: 19°C
Υγρασία: 58%
Βαρόμετρο: 1009 hPa
Περίληψη: Αίθριος
Ορατότητα: πάνω από 10 km
2017/08/20 19:20 LGMT 201920Z 30006KT CAVOK 28/19 Q1009
LGSY - Skiros Island-Elev 15m
Απόσταση από σταθμό: ΝΑ 227km
Ενημερώθηκε: 20/08/2017 23:50
ΜΗ Ενημερωμένο METAR!
Αίθριος
Αίθριος
 Ανεμοι από μεταβλητός
Ανεμος: μεταβλητός 4 km/h
Θερμοκρασία: 23°C
Σημείο Δρόσου: 17°C
Υγρασία: 69%
Βαρόμετρο: 1008 hPa
Περίληψη: Αίθριος
Ορατότητα: πάνω από 10 km
2017/08/20 20:50 LGSY 202050Z VRB02KT CAVOK 23/17 Q1008 BLU
 
LGKZ - Kozani-Elev 628m
Απόσταση από σταθμό: ΔΝΔ 102km
Ενημερώθηκε: 20/08/2017 20:50
ΜΗ Ενημερωμένο METAR!
Μερικώς νεφελώδης
Μερικώς νεφελώδης
 Ανεμοι από ΑΒΑ
Ανεμος: ΑΒΑ 11 km/h
Θερμοκρασία: 28°C
Σημείο Δρόσου: 11°C
Υγρασία: 35%
Βαρόμετρο: 1013 hPa
Νέφωση: Μερικώς νεφελώδης
Ορατότητα: 10 km
Λεπτομέρειες Νεφών: Διάσπαρτα Νέφη 914 m
Μερικώς νεφελώδης 2438 m
2017/08/20 17:50 LGKZ 201750Z 07006KT 9999 FEW030 SCT080 28/11 Q1013
LGIO - Ioannina-Elev 476m
Απόσταση από σταθμό: ΔΝΔ 209km
Ενημερώθηκε: 20/08/2017 22:20
ΜΗ Ενημερωμένο METAR!
Μερικώς νεφελώδης
Μερικώς νεφελώδης
 Ανεμοι από μεταβλητός
Ανεμος: μεταβλητός 0 km/h
Θερμοκρασία: 22°C
Σημείο Δρόσου: 14°C
Υγρασία: 61%
Βαρόμετρο: 1014 hPa
Νέφωση: Μερικώς νεφελώδης
Ορατότητα: 10 km
Λεπτομέρειες Νεφών: Μερικώς νεφελώδης 1372 m
2017/08/20 19:20 LGIO 201920Z /////KT 9999 SCT045 22/14 Q1014
 
LGZA - Zakinthos-Elev 3m
Απόσταση από σταθμό: ΝΝΔ 367km
Ενημερώθηκε: 20/08/2017 22:20
ΜΗ Ενημερωμένο METAR!
Αίθριος
Αίθριος
 Ανεμοι από άπνοια
Ανεμος: άπνοια
Θερμοκρασία: 25°C
Σημείο Δρόσου: 20°C
Υγρασία: 74%
Βαρόμετρο: 1010 hPa
Περίληψη: Αίθριος
Ορατότητα: πάνω από 10 km
2017/08/20 19:20 LGZA 201920Z 00000KT CAVOK 25/20 Q1010
LGKR - Corfu Island-Elev 2m
Απόσταση από σταθμό: ΔΝΔ 282km
Ενημερώθηκε: 21/08/2017 01:20
Μερικώς νεφελώδης
Μερικώς νεφελώδης
 Ανεμοι από άπνοια
Ανεμος: άπνοια
Θερμοκρασία: 24°C
Σημείο Δρόσου: 21°C
Υγρασία: 83%
Βαρόμετρο: 1011 hPa
Νέφωση: Μερικώς νεφελώδης
Ορατότητα: 10 km
Λεπτομέρειες Νεφών: Διάσπαρτα Νέφη 762 m
Μερικώς νεφελώδης 2134 m
2017/08/20 22:20 LGKR 202220Z 00000KT 9999 FEW025 SCT070 24/21 Q1011 NOSIG
 
LGSO - Syros Island-Elev 72m
Απόσταση από σταθμό: ΝΝΑ 397km
Ενημερώθηκε: 20/08/2017 17:50
ΜΗ Ενημερωμένο METAR!
Αίθριος
Αίθριος
 Ανεμοι από Β
Ανεμος: Β 13 km/h
Θερμοκρασία: 27°C
Δείκτης Δυσφορίας: 28°C
Σημείο Δρόσου: 19°C
Υγρασία: 62%
Βαρόμετρο: 1010 hPa
Περίληψη: Αίθριος
Ορατότητα: πάνω από 10 km
2017/08/20 14:50 LGSO 201450Z 01007KT CAVOK 27/19 Q1010
LGMK - Mikonos Island-Elev 123m
Απόσταση από σταθμό: ΝΝΑ 412km
Ενημερώθηκε: 20/08/2017 23:20
ΜΗ Ενημερωμένο METAR!
Αίθριος
Αίθριος
 Ανεμοι από μεταβλητός
Ανεμος: μεταβλητός 6 km/h
Θερμοκρασία: 25°C
Σημείο Δρόσου: 18°C
Υγρασία: 65%
Βαρόμετρο: 1010 hPa
Περίληψη: Αίθριος
Ορατότητα: πάνω από 10 km
2017/08/20 20:20 LGMK 202020Z VRB03KT CAVOK 25/18 Q1010
 
LGSR - Santorini Island-Elev 40m
Απόσταση από σταθμό: ΝΝΑ 520km
Ενημερώθηκε: 21/08/2017 01:20
Διάσπαρτα Νέφη
Διάσπαρτα Νέφη
 Ανεμοι από Δ
Ανεμος: Δ 17 km/h
Θερμοκρασία: 24°C
Σημείο Δρόσου: 19°C
Υγρασία: 74%
Βαρόμετρο: 1009 hPa
Νέφωση: Διάσπαρτα Νέφη
Ορατότητα: 10 km
Λεπτομέρειες Νεφών: Διάσπαρτα Νέφη 762 m
2017/08/20 22:20 LGSR 202220Z 27009KT 9999 FEW025 24/19 Q1009
LGKL - Kalamata-Elev 8m
Απόσταση από σταθμό: Ν 405km
Ενημερώθηκε: 21/08/2017 01:20
Αίθριος
Αίθριος
 Ανεμοι από ΔΒΔ
Ανεμος: ΔΒΔ 7 km/h
Θερμοκρασία: 20°C
Σημείο Δρόσου: 12°C
Υγρασία: 60%
Βαρόμετρο: 1011 hPa
Περίληψη: Αίθριος
Ορατότητα: πάνω από 10 km
2017/08/20 22:20 LGKL 202220Z 30004KT CAVOK 20/12 Q1011
 
LGIR - Iraklion/Crete-Elev 5m
Απόσταση από σταθμό: ΝΝΑ 622km
Ενημερώθηκε: 21/08/2017 01:20
Διάσπαρτα Νέφη
Διάσπαρτα Νέφη
 Ανεμοι από άπνοια
Ανεμος: άπνοια
Θερμοκρασία: 24°C
Σημείο Δρόσου: 15°C
Υγρασία: 57%
Βαρόμετρο: 1010 hPa
Νέφωση: Διάσπαρτα Νέφη
Ορατότητα: 10 km
Λεπτομέρειες Νεφών: Διάσπαρτα Νέφη 610 m
2017/08/20 22:20 LGIR 202220Z 00000KT 9999 FEW020 24/15 Q1010 NOSIG
LGRP - Rhodes-Elev 5m
Απόσταση από σταθμό: ΝΑ 649km
Ενημερώθηκε: 21/08/2017 01:20
Διάσπαρτα Νέφη
Διάσπαρτα Νέφη
 Ανεμοι από ΔΝΔ
Ανεμος: ΔΝΔ 15 km/h
Θερμοκρασία: 25°C
Σημείο Δρόσου: 21°C
Υγρασία: 79%
Βαρόμετρο: 1007 hPa
Νέφωση: Διάσπαρτα Νέφη
Ορατότητα: 10 km
Λεπτομέρειες Νεφών: Διάσπαρτα Νέφη 549 m
2017/08/20 22:20 LGRP 202220Z 24008KT 9999 FEW018 25/21 Q1007 NOSIG
 
LWOH - Ohrid/FYROM-Elev 761m
Απόσταση από σταθμό: ΔΒΔ 188km
Ενημερώθηκε: 20/08/2017 21:00
ΜΗ Ενημερωμένο METAR!
Διάσπαρτα Νέφη
Διάσπαρτα Νέφη
 Ανεμοι από ΒΑ
Ανεμος: ΒΑ 4 km/h
Θερμοκρασία: 24°C
Σημείο Δρόσου: 7°C
Υγρασία: 34%
Βαρόμετρο: 1014 hPa
Νέφωση: Διάσπαρτα Νέφη
Ορατότητα: 10 km
Λεπτομέρειες Νεφών: Διάσπαρτα Νέφη 1829 m
2017/08/20 18:00 LWOH 201800Z 05002KT 9999 FEW060 24/07 Q1014
LBSF - Sofia/Bulgaria-Elev 595m
Απόσταση από σταθμό: Β 227km
Ενημερώθηκε: 21/08/2017 01:30
Αίθριος
Αίθριος
 Ανεμοι από Δ
Ανεμος: Δ 19 km/h
Θερμοκρασία: 22°C
Σημείο Δρόσου: 16°C
Υγρασία: 69%
Βαρόμετρο: 1014 hPa
Περίληψη: Αίθριος
Ορατότητα: πάνω από 10 km
2017/08/20 22:30 LBSF 202230Z 27010KT CAVOK 22/16 Q1014 NOSIG